createdAt,value
2022-10-17T00:01:55.771Z,10.85
2022-10-17T00:04:26.740Z,10.82
2022-10-17T00:06:57.780Z,10.83
2022-10-17T00:09:28.857Z,10.82
2022-10-17T00:11:59.888Z,10.78
2022-10-17T00:14:29.202Z,10.75
2022-10-17T00:17:00.086Z,10.71
2022-10-17T00:19:31.119Z,10.69
2022-10-17T00:22:01.958Z,10.67
2022-10-17T00:24:34.336Z,10.64
2022-10-17T00:27:05.646Z,10.59
2022-10-17T00:29:36.737Z,10.55
2022-10-17T00:32:06.249Z,10.46
2022-10-17T00:34:37.256Z,10.32
2022-10-17T00:37:08.235Z,10.29
2022-10-17T00:39:39.412Z,10.27
2022-10-17T00:42:13.549Z,10.26
2022-10-17T00:45:16.144Z,10.25
2022-10-17T00:47:49.692Z,10.23
2022-10-17T00:50:21.143Z,10.17
2022-10-17T00:52:53.111Z,10.08
2022-10-17T00:55:29.478Z,10.03
2022-10-17T00:58:02.611Z,10.02
2022-10-17T01:00:33.787Z,10.03
2022-10-17T01:03:04.897Z,10.04
2022-10-17T01:05:36.066Z,10.04
2022-10-17T01:08:07.626Z,10.06
2022-10-17T01:10:49.255Z,10.05
2022-10-17T01:13:30.736Z,10.04
2022-10-17T01:16:10.548Z,10.03
2022-10-17T01:18:52.493Z,10.01
2022-10-17T01:21:43.339Z,9.98
2022-10-17T01:24:33.447Z,9.97
2022-10-17T01:27:49.301Z,9.93
2022-10-17T01:30:49.626Z,9.89
2022-10-17T01:33:30.565Z,9.87
2022-10-17T01:36:10.104Z,9.83
2022-10-17T01:38:49.547Z,9.82
2022-10-17T01:41:31.527Z,9.80
2022-10-17T01:44:09.278Z,9.79
2022-10-17T01:46:42.275Z,9.75
2022-10-17T01:49:15.581Z,9.72
2022-10-17T01:51:50.419Z,9.66
2022-10-17T01:54:26.409Z,9.60
2022-10-17T01:57:00.921Z,9.54
2022-10-17T01:59:38.836Z,9.49
2022-10-17T02:02:11.025Z,9.47
2022-10-17T02:04:43.339Z,9.46
2022-10-17T02:07:14.928Z,9.43
2022-10-17T02:09:46.090Z,9.42
2022-10-17T02:12:35.830Z,9.39
2022-10-17T02:15:11.615Z,9.36
2022-10-17T02:17:52.761Z,9.32
2022-10-17T02:20:27.852Z,9.31
2022-10-17T02:23:04.168Z,9.28
2022-10-17T02:25:42.584Z,9.25
2022-10-17T02:28:21.709Z,9.23
2022-10-17T02:30:58.224Z,9.21
2022-10-17T02:33:34.340Z,9.19
2022-10-17T02:36:10.837Z,9.17
2022-10-17T02:38:44.643Z,9.14
2022-10-17T02:41:20.169Z,9.10
2022-10-17T02:43:58.796Z,9.07
2022-10-17T02:46:33.974Z,9.06
2022-10-17T02:49:09.956Z,9.02
2022-10-17T02:51:47.345Z,8.94
2022-10-17T02:54:23.550Z,8.88
2022-10-17T02:57:00.567Z,8.85
2022-10-17T03:02:07.602Z,8.81
2022-10-17T03:04:38.707Z,8.78
2022-10-17T03:07:09.745Z,8.78
2022-10-17T03:09:39.297Z,8.78
2022-10-17T03:12:10.493Z,8.77
2022-10-17T03:14:41.365Z,8.73
2022-10-17T03:17:14.428Z,8.73
2022-10-17T03:19:45.457Z,8.73
2022-10-17T03:22:16.551Z,8.72
2022-10-17T03:24:48.994Z,8.71
2022-10-17T03:27:19.765Z,8.70
2022-10-17T03:29:50.642Z,8.68
2022-10-17T03:32:21.419Z,8.67
2022-10-17T03:34:52.391Z,8.66
2022-10-17T03:37:23.299Z,8.66
2022-10-17T03:39:54.381Z,8.63
2022-10-17T03:42:25.221Z,8.62
2022-10-17T03:44:54.687Z,8.59
2022-10-17T03:47:25.619Z,8.55
2022-10-17T03:49:56.707Z,8.54
2022-10-17T03:52:26.131Z,8.54
2022-10-17T03:54:57.061Z,8.51
2022-10-17T03:57:28.488Z,8.48
2022-10-17T03:59:59.800Z,8.48
2022-10-17T04:02:30.653Z,8.44
2022-10-17T04:05:00.020Z,8.44
2022-10-17T04:07:31.062Z,8.41
2022-10-17T04:10:01.891Z,8.39
2022-10-17T04:12:31.722Z,8.38
2022-10-17T04:15:02.909Z,8.35
2022-10-17T04:17:37.219Z,8.33
2022-10-17T04:20:11.055Z,8.28
2022-10-17T04:22:42.221Z,8.27
2022-10-17T04:25:11.787Z,8.24
2022-10-17T04:27:42.477Z,8.22
2022-10-17T04:30:14.085Z,8.20
2022-10-17T04:32:45.177Z,8.19
2022-10-17T04:35:16.282Z,8.18
2022-10-17T04:37:47.111Z,8.17
2022-10-17T04:40:18.225Z,8.17
2022-10-17T04:42:49.124Z,8.15
2022-10-17T04:45:20.225Z,8.13
2022-10-17T04:47:50.919Z,8.11
2022-10-17T04:50:22.033Z,8.09
2022-10-17T04:52:52.993Z,8.08
2022-10-17T04:55:24.193Z,8.06
2022-10-17T04:57:54.934Z,8.05
2022-10-17T05:00:25.808Z,8.03
2022-10-17T05:02:56.768Z,8.04
2022-10-17T05:05:27.857Z,8.04
2022-10-17T05:07:58.851Z,8.02
2022-10-17T05:10:30.043Z,8.01
2022-10-17T05:12:59.336Z,8.01
2022-10-17T05:15:30.295Z,7.96
2022-10-17T05:18:04.273Z,7.95
2022-10-17T05:20:35.444Z,7.93
2022-10-17T05:23:06.428Z,7.90
2022-10-17T05:25:39.890Z,7.87
2022-10-17T05:28:16.269Z,7.86
2022-10-17T05:30:50.573Z,7.86
2022-10-17T05:33:23.407Z,7.85
2022-10-17T05:38:53.386Z,7.84
2022-10-17T05:41:24.561Z,7.83
2022-10-17T05:43:53.719Z,7.83
2022-10-17T05:46:25.022Z,7.81
2022-10-17T05:48:56.440Z,7.80
2022-10-17T05:51:27.529Z,7.81
2022-10-17T05:53:58.680Z,7.82
2022-10-17T05:56:29.775Z,7.84
2022-10-17T05:59:01.191Z,7.86
2022-10-17T06:01:32.191Z,7.88
2022-10-17T06:04:03.556Z,7.90
2022-10-17T06:06:34.647Z,7.90
2022-10-17T06:09:06.110Z,7.92
2022-10-17T06:11:37.617Z,7.92
2022-10-17T06:14:08.900Z,7.92
2022-10-17T06:16:39.879Z,7.92
2022-10-17T06:19:09.331Z,7.97
2022-10-17T06:21:40.336Z,7.97
2022-10-17T06:24:11.101Z,7.99
2022-10-17T06:26:40.579Z,8.02
2022-10-17T06:29:11.582Z,8.03
2022-10-17T06:31:42.580Z,8.06
2022-10-17T06:34:13.594Z,8.10
2022-10-17T06:36:44.892Z,8.12
2022-10-17T06:39:15.850Z,8.17
2022-10-17T06:41:46.598Z,8.22
2022-10-17T06:44:16.387Z,8.27
2022-10-17T06:46:45.772Z,8.31
2022-10-17T06:49:16.737Z,8.32
2022-10-17T06:51:47.987Z,8.37
2022-10-17T06:54:17.406Z,8.42
2022-10-17T06:56:48.308Z,8.42
2022-10-17T06:59:17.625Z,8.48
2022-10-17T07:01:48.943Z,8.50
2022-10-17T07:04:19.969Z,8.58
2022-10-17T07:06:50.754Z,8.65
2022-10-17T07:09:22.912Z,8.73
2022-10-17T07:11:54.003Z,8.81
2022-10-17T07:14:31.797Z,8.89
2022-10-17T07:17:02.795Z,8.99
2022-10-17T07:19:33.836Z,9.09
2022-10-17T07:22:03.207Z,9.20
2022-10-17T07:24:34.309Z,9.29
2022-10-17T07:27:05.527Z,9.41
2022-10-17T07:29:36.305Z,9.53
2022-10-17T07:32:08.621Z,9.65
2022-10-17T07:34:39.440Z,9.76
2022-10-17T07:37:10.000Z,9.89
2022-10-17T07:39:59.215Z,10.00
2022-10-17T07:42:29.080Z,10.17
2022-10-17T07:44:59.877Z,10.33
2022-10-17T07:47:32.066Z,10.49
2022-10-17T07:50:03.103Z,10.66
2022-10-17T07:52:34.080Z,10.86
2022-10-17T07:55:03.418Z,11.06
2022-10-17T07:57:34.525Z,11.30
2022-10-17T08:00:06.320Z,11.57
2022-10-17T08:02:37.173Z,11.83
2022-10-17T08:05:09.292Z,12.06
2022-10-17T08:07:41.440Z,12.28
2022-10-17T08:10:15.015Z,12.49
2022-10-17T08:12:46.110Z,12.67
2022-10-17T08:15:17.115Z,12.81
2022-10-17T08:17:47.988Z,12.93
2022-10-17T08:20:19.336Z,13.09
2022-10-17T08:22:55.710Z,13.22
2022-10-17T08:25:26.884Z,13.34
2022-10-17T08:27:58.949Z,13.44
2022-10-17T08:30:31.293Z,13.56
2022-10-17T08:33:02.272Z,13.66
2022-10-17T08:35:33.789Z,13.75
2022-10-17T08:38:04.898Z,13.85
2022-10-17T08:40:36.477Z,13.94
2022-10-17T08:43:22.828Z,14.01
2022-10-17T08:46:00.428Z,14.10
2022-10-17T08:48:34.134Z,14.17
2022-10-17T08:51:11.903Z,14.24
2022-10-17T08:53:49.274Z,14.32
2022-10-17T08:56:24.997Z,14.40
2022-10-17T08:59:18.243Z,14.48
2022-10-17T09:01:53.009Z,14.52
2022-10-17T09:04:42.111Z,14.60
2022-10-17T09:07:19.030Z,14.68
2022-10-17T09:10:01.750Z,14.78
2022-10-17T09:12:41.621Z,14.87
2022-10-17T09:15:35.578Z,14.94
2022-10-17T09:18:15.873Z,15.04
2022-10-17T09:20:52.800Z,15.13
2022-10-17T09:23:27.160Z,15.20
2022-10-17T09:25:59.808Z,15.27
2022-10-17T09:28:35.716Z,15.34
2022-10-17T09:31:13.143Z,15.41
2022-10-17T09:33:54.828Z,15.47
2022-10-17T09:36:30.025Z,15.53
2022-10-17T09:39:03.638Z,15.58
2022-10-17T09:41:46.767Z,15.63
2022-10-17T09:44:22.965Z,15.71
2022-10-17T09:47:20.022Z,15.78
2022-10-17T09:49:52.130Z,15.86
2022-10-17T09:52:27.520Z,15.92
2022-10-17T09:55:02.086Z,16.00
2022-10-17T09:57:57.072Z,16.08
2022-10-17T10:00:31.040Z,16.16
2022-10-17T10:03:18.987Z,16.22
2022-10-17T10:06:04.323Z,16.31
2022-10-17T10:08:37.863Z,16.38
2022-10-17T10:11:13.839Z,16.44
2022-10-17T10:13:46.339Z,16.51
2022-10-17T10:16:20.969Z,16.57
2022-10-17T10:18:53.389Z,16.64
2022-10-17T10:21:26.426Z,16.69
2022-10-17T10:24:13.581Z,16.76
2022-10-17T10:26:47.811Z,16.82
2022-10-17T10:29:31.029Z,16.86
2022-10-17T10:32:11.421Z,16.92
2022-10-17T10:34:54.349Z,16.98
2022-10-17T10:37:24.674Z,17.02
2022-10-17T10:39:58.478Z,17.04
2022-10-17T10:42:33.252Z,17.08
2022-10-17T10:45:29.266Z,17.11
2022-10-17T10:48:21.664Z,17.14
2022-10-17T10:50:57.514Z,17.17
2022-10-17T10:53:35.333Z,17.21
2022-10-17T10:56:14.842Z,17.24
2022-10-17T10:58:54.796Z,17.30
2022-10-17T11:01:33.970Z,17.39
2022-10-17T11:04:28.583Z,17.46
2022-10-17T11:07:05.755Z,17.54
2022-10-17T11:09:59.744Z,17.59
2022-10-17T11:12:35.947Z,17.66
2022-10-17T11:15:19.051Z,17.72
2022-10-17T11:17:58.484Z,17.77
2022-10-17T11:20:37.834Z,17.81
2022-10-17T11:23:20.773Z,17.86
2022-10-17T11:25:53.822Z,17.90
2022-10-17T11:28:26.392Z,17.94
2022-10-17T11:31:04.516Z,17.98
2022-10-17T11:33:46.791Z,18.03
2022-10-17T11:36:22.592Z,18.05
2022-10-17T11:38:58.039Z,18.07
2022-10-17T11:41:35.188Z,18.09
2022-10-17T11:44:14.475Z,18.14
2022-10-17T11:46:48.846Z,18.18
2022-10-17T11:49:24.027Z,18.24
2022-10-17T11:52:03.464Z,18.27
2022-10-17T11:54:40.310Z,18.30
2022-10-17T11:57:34.872Z,18.33
2022-10-17T12:00:21.496Z,18.35
2022-10-17T12:02:59.021Z,18.36
2022-10-17T12:05:35.719Z,18.41
2022-10-17T12:08:15.071Z,18.45
2022-10-17T12:10:52.789Z,18.47
2022-10-17T12:13:50.251Z,18.52
2022-10-17T12:16:47.727Z,18.57
2022-10-17T12:19:29.007Z,18.60
2022-10-17T12:22:03.587Z,18.62
2022-10-17T12:25:03.481Z,18.66
2022-10-17T12:27:45.962Z,18.68
2022-10-17T12:30:23.841Z,18.71
2022-10-17T12:33:07.384Z,18.74
2022-10-17T12:35:41.427Z,18.77
2022-10-17T12:38:29.310Z,18.77
2022-10-17T12:41:04.925Z,18.77
2022-10-17T12:43:53.681Z,18.77
2022-10-17T12:46:59.243Z,18.77
2022-10-17T12:49:53.093Z,18.78
2022-10-17T12:52:49.081Z,18.81
2022-10-17T12:55:21.105Z,18.83
2022-10-17T12:58:00.163Z,18.85
2022-10-17T13:00:49.849Z,18.87
2022-10-17T13:03:33.098Z,18.90
2022-10-17T13:06:07.839Z,18.92
2022-10-17T13:08:44.718Z,18.95
2022-10-17T13:11:15.837Z,18.98
2022-10-17T13:13:51.258Z,19.03
2022-10-17T13:16:40.189Z,19.05
2022-10-17T13:19:17.929Z,19.06
2022-10-17T13:21:56.220Z,19.09
2022-10-17T13:24:32.955Z,19.11
2022-10-17T13:27:02.600Z,19.14
2022-10-17T13:29:34.270Z,19.14
2022-10-17T13:32:07.047Z,19.17
2022-10-17T13:34:37.842Z,19.20
2022-10-17T13:37:13.807Z,19.23
2022-10-17T13:39:56.585Z,19.25
2022-10-17T13:42:32.290Z,19.27
2022-10-17T13:45:03.690Z,19.28
2022-10-17T13:47:38.837Z,19.31
2022-10-17T13:50:43.121Z,19.31
2022-10-17T13:53:20.366Z,19.30
2022-10-17T13:56:22.786Z,19.29
2022-10-17T13:58:52.807Z,19.27
2022-10-17T14:01:24.912Z,19.24
2022-10-17T14:04:08.342Z,19.23
2022-10-17T14:06:46.314Z,19.20
2022-10-17T14:09:26.190Z,19.18
2022-10-17T14:12:04.516Z,19.19
2022-10-17T14:14:58.042Z,19.19
2022-10-17T14:17:29.774Z,19.19
2022-10-17T14:23:20.909Z,19.16
2022-10-17T14:25:45.633Z,19.15
2022-10-17T14:28:18.527Z,19.13
2022-10-17T14:30:57.875Z,19.09
2022-10-17T14:33:35.449Z,19.05
2022-10-17T14:36:08.807Z,19.08
2022-10-17T14:38:39.799Z,19.10
2022-10-17T14:41:41.802Z,19.08
2022-10-17T14:44:30.271Z,19.08
2022-10-17T14:47:41.737Z,19.35
2022-10-17T14:50:24.328Z,19.99
2022-10-17T14:53:25.916Z,20.32
2022-10-17T14:56:01.444Z,20.47
2022-10-17T14:58:35.101Z,20.65
2022-10-17T15:01:06.270Z,20.70
2022-10-17T15:03:37.431Z,20.72
2022-10-17T15:06:20.525Z,20.67
2022-10-17T15:08:51.587Z,20.55
2022-10-17T15:11:22.403Z,20.49
2022-10-17T15:13:53.724Z,20.38
2022-10-17T15:16:45.237Z,20.27
2022-10-17T15:19:16.557Z,20.08
2022-10-17T15:21:47.517Z,20.06
2022-10-17T15:24:18.643Z,20.03
2022-10-17T15:26:49.960Z,19.88
2022-10-17T15:29:20.945Z,19.74
2022-10-17T15:31:51.967Z,19.55
2022-10-17T15:34:22.937Z,19.30
2022-10-17T15:36:54.569Z,19.07
2022-10-17T15:39:25.524Z,18.82
2022-10-17T15:41:56.272Z,18.51
2022-10-17T15:44:27.172Z,18.18
2022-10-17T15:46:58.347Z,17.88
2022-10-17T15:49:29.190Z,17.58
2022-10-17T15:52:00.379Z,17.31
2022-10-17T15:54:31.316Z,17.07
2022-10-17T15:57:02.550Z,16.83
2022-10-17T15:59:35.848Z,16.63
2022-10-17T16:02:10.674Z,16.44
2022-10-17T16:04:41.971Z,16.26
2022-10-17T16:07:12.995Z,16.09
2022-10-17T16:09:43.707Z,15.92
2022-10-17T16:12:17.568Z,15.74
2022-10-17T16:14:48.791Z,15.58
2022-10-17T16:17:19.973Z,15.43
2022-10-17T16:19:50.827Z,15.30
2022-10-17T16:22:26.625Z,15.18
2022-10-17T16:24:59.611Z,15.07
2022-10-17T16:27:30.719Z,14.98
2022-10-17T16:30:01.928Z,14.91
2022-10-17T16:32:33.199Z,14.84
2022-10-17T16:35:04.304Z,14.78
2022-10-17T16:37:35.835Z,14.70
2022-10-17T16:40:07.705Z,14.64
2022-10-17T16:42:38.749Z,14.56
2022-10-17T16:45:11.408Z,14.51
2022-10-17T16:47:42.307Z,14.47
2022-10-17T16:50:13.831Z,14.43
2022-10-17T16:53:01.151Z,14.37
2022-10-17T16:55:32.023Z,14.32
2022-10-17T16:58:03.263Z,14.27
2022-10-17T17:00:35.003Z,14.21
2022-10-17T17:03:06.871Z,14.15
2022-10-17T17:05:38.123Z,14.08
2022-10-17T17:08:12.452Z,14.00
2022-10-17T17:10:49.819Z,13.90
2022-10-17T17:13:20.690Z,13.82
2022-10-17T17:15:53.783Z,13.73
2022-10-17T17:18:24.802Z,13.66
2022-10-17T17:21:00.888Z,13.59
2022-10-17T17:23:33.740Z,13.51
2022-10-17T17:26:07.173Z,13.41
2022-10-17T17:28:39.233Z,13.33
2022-10-17T17:31:11.918Z,13.25
2022-10-17T17:33:43.827Z,13.17
2022-10-17T17:36:17.276Z,13.07
2022-10-17T17:38:49.536Z,13.00
2022-10-17T17:41:21.738Z,12.94
2022-10-17T17:43:53.666Z,12.86
2022-10-17T17:46:25.562Z,12.81
2022-10-17T17:48:57.518Z,12.75
2022-10-17T17:51:29.686Z,12.72
2022-10-17T17:54:00.631Z,12.66
2022-10-17T17:56:33.452Z,12.61
2022-10-17T17:59:05.711Z,12.55
2022-10-17T18:01:38.968Z,12.50
2022-10-17T18:04:10.779Z,12.45
2022-10-17T18:06:42.354Z,12.39
2022-10-17T18:09:13.251Z,12.33
2022-10-17T18:11:44.134Z,12.29
2022-10-17T18:14:15.361Z,12.22
2022-10-17T18:16:47.293Z,12.19
2022-10-17T18:19:18.466Z,12.17
2022-10-17T18:21:49.932Z,12.14
2022-10-17T18:24:20.813Z,12.12
2022-10-17T18:26:54.077Z,12.09
2022-10-17T18:29:25.080Z,12.07
2022-10-17T18:31:56.206Z,12.04
2022-10-17T18:34:27.819Z,12.01
2022-10-17T18:36:59.077Z,11.96
2022-10-17T18:39:30.297Z,11.91
2022-10-17T18:42:01.273Z,11.88
2022-10-17T18:44:32.240Z,11.84
2022-10-17T18:47:04.425Z,11.82
2022-10-17T18:49:35.766Z,11.78
2022-10-17T18:52:06.942Z,11.73
2022-10-17T18:54:37.832Z,11.70
2022-10-17T18:57:09.166Z,11.67
2022-10-17T18:59:40.478Z,11.63
2022-10-17T19:02:13.551Z,11.60
2022-10-17T19:04:44.353Z,11.56
2022-10-17T19:07:14.258Z,11.52
2022-10-17T19:09:45.390Z,11.45
2022-10-17T19:12:16.452Z,11.40
2022-10-17T19:14:47.685Z,11.36
2022-10-17T19:17:18.611Z,11.33
2022-10-17T19:19:52.171Z,11.28
2022-10-17T19:22:23.536Z,11.22
2022-10-17T19:24:54.195Z,11.13
2022-10-17T19:27:25.403Z,11.09
2022-10-17T19:29:56.292Z,11.04
2022-10-17T19:32:27.506Z,10.99
2022-10-17T19:34:58.459Z,10.99
2022-10-17T19:37:29.864Z,10.96
2022-10-17T19:40:00.813Z,10.92
2022-10-17T19:42:30.720Z,10.90
2022-10-17T19:45:01.948Z,10.84
2022-10-17T19:47:33.044Z,10.81
2022-10-17T19:52:40.441Z,10.72
2022-10-17T19:55:11.993Z,10.67
2022-10-17T19:57:42.870Z,10.62
2022-10-17T20:00:15.875Z,10.57
2022-10-17T20:02:46.932Z,10.54
2022-10-17T20:05:19.033Z,10.51
2022-10-17T20:07:50.841Z,10.49
2022-10-17T20:10:20.249Z,10.45
2022-10-17T20:12:51.269Z,10.40
2022-10-17T20:15:22.130Z,10.38
2022-10-17T20:17:53.078Z,10.35
2022-10-17T20:20:23.922Z,10.32
2022-10-17T20:22:53.297Z,10.28
2022-10-17T20:25:24.127Z,10.24
2022-10-17T20:27:53.873Z,10.19
2022-10-17T20:30:23.751Z,10.10
2022-10-17T20:32:55.776Z,10.01
2022-10-17T20:35:26.728Z,9.94
2022-10-17T20:37:58.242Z,9.90
2022-10-17T20:40:35.131Z,9.89
2022-10-17T20:43:08.632Z,9.88
2022-10-17T20:45:51.600Z,9.85
2022-10-17T20:48:23.304Z,9.83
2022-10-17T20:50:54.701Z,9.81
2022-10-17T20:53:36.465Z,9.81
2022-10-17T20:56:10.357Z,9.78
2022-10-17T20:58:41.348Z,9.73
2022-10-17T21:01:13.272Z,9.69
2022-10-17T21:03:46.503Z,9.66
2022-10-17T21:06:18.582Z,9.63
2022-10-17T21:08:50.873Z,9.62
2022-10-17T21:11:25.012Z,9.61
2022-10-17T21:13:59.652Z,9.57
2022-10-17T21:16:32.446Z,9.54
2022-10-17T21:19:04.307Z,9.51
2022-10-17T21:21:37.111Z,9.48
2022-10-17T21:24:19.303Z,9.46
2022-10-17T21:26:55.529Z,9.44
2022-10-17T21:29:27.020Z,9.42
2022-10-17T21:31:57.856Z,9.41
2022-10-17T21:34:29.095Z,9.40
2022-10-17T21:37:00.026Z,9.38
2022-10-17T21:39:31.115Z,9.36
2022-10-17T21:42:02.047Z,9.32
2022-10-17T21:44:31.402Z,9.32
2022-10-17T21:47:02.382Z,9.25
2022-10-17T21:49:34.083Z,9.21
2022-10-17T21:52:07.231Z,9.17
2022-10-17T21:54:38.045Z,9.12
2022-10-17T21:57:09.209Z,9.02
2022-10-17T21:59:40.070Z,8.91
2022-10-17T22:02:11.176Z,8.82
2022-10-17T22:04:42.208Z,8.78
2022-10-17T22:07:13.393Z,8.77
2022-10-17T22:09:45.223Z,8.76
2022-10-17T22:12:16.326Z,8.76
2022-10-17T22:14:47.340Z,8.75
2022-10-17T22:17:18.312Z,8.73
2022-10-17T22:19:48.402Z,8.71
2022-10-17T22:22:19.383Z,8.68
2022-10-17T22:24:50.388Z,8.67
2022-10-17T22:27:21.260Z,8.65
2022-10-17T22:29:52.172Z,8.61
2022-10-17T22:32:22.572Z,8.60
2022-10-17T22:34:54.000Z,8.57
2022-10-17T22:37:25.273Z,8.55
2022-10-17T22:39:56.231Z,8.53
2022-10-17T22:42:31.361Z,8.51
2022-10-17T22:45:03.571Z,8.49
2022-10-17T22:47:36.859Z,8.48
2022-10-17T22:50:08.436Z,8.42
2022-10-17T22:52:39.285Z,8.35
2022-10-17T22:55:11.430Z,8.29
2022-10-17T22:57:42.702Z,8.27
2022-10-17T23:00:15.272Z,8.25
2022-10-17T23:02:46.738Z,8.23
2022-10-17T23:05:17.955Z,8.21
2022-10-17T23:07:49.047Z,8.20
2022-10-17T23:10:20.008Z,8.20
2022-10-17T23:12:51.140Z,8.19
2022-10-17T23:15:22.181Z,8.16
2022-10-17T23:17:53.401Z,8.15
2022-10-17T23:20:22.835Z,8.13
2022-10-17T23:23:03.628Z,8.10
2022-10-17T23:25:35.795Z,8.09
2022-10-17T23:28:08.137Z,8.08
2022-10-17T23:30:39.694Z,8.07
2022-10-17T23:33:11.625Z,8.05
2022-10-17T23:35:42.883Z,8.02
2022-10-17T23:38:13.818Z,7.99
2022-10-17T23:40:44.735Z,7.94
2022-10-17T23:43:15.560Z,7.93
2022-10-17T23:45:46.532Z,7.88
2022-10-17T23:48:15.899Z,7.85
2022-10-17T23:50:47.398Z,7.81
2022-10-17T23:53:18.326Z,7.80
2022-10-17T23:55:47.991Z,7.79
2022-10-17T23:58:18.942Z,7.76
